Time;durP1;ratioP1;P1;durP2;ratioP2;P2;SDS_P1;SDS_P2;PMS_P1;PMS_P2;Temp;Humidity;BMP_temperature;BMP_pressure;BME280_temperature;BME280_humidity;BME280_pressure;Samples;Min_cycle;Max_cycle;Signal;HPM_P1;HPM_P2
2021/04/03 00:01:52;;;;;;;2.27;0.90;;;;;;;6.04;48.44;101786.91;6262229;28;20185;-72
2021/04/03 00:04:56;;;;;;;0.80;0.80;;;;;;;5.92;47.93;101787.38;6262270;28;20278;-72
2021/04/03 00:08:00;;;;;;;1.97;0.80;;;;;;;5.82;47.65;101765.81;6261207;28;20511;-72
2021/04/03 00:11:06;;;;;;;0.77;0.77;;;;;;;5.72;48.94;101792.19;6262710;28;20258;-72
2021/04/03 00:14:10;;;;;;;0.90;0.90;;;;;;;5.72;48.16;101778.66;6262558;28;20255;-72
2021/04/03 00:17:13;;;;;;;;;;;;;;;5.81;47.29;101780.38;6262526;28;19921;-72
2021/04/03 00:20:17;;;;;;;;;;;;;;;5.70;47.78;101783.34;6266704;28;19916;-72
2021/04/03 00:23:21;;;;;;;;;;;;;;;5.62;47.87;101777.94;6267512;28;19917;-72
2021/04/03 00:26:23;;;;;;;;;;;;;;;5.65;47.88;101788.41;6267588;28;19955;-72
2021/04/03 00:29:26;;;;;;;;;;;;;;;5.74;48.20;101792.03;6267457;28;19960;-72
2021/04/03 00:32:29;;;;;;;;;;;;;;;5.57;47.69;101783.00;6266367;28;19916;-72
2021/04/03 00:35:33;;;;;;;;;;;;;;;5.66;47.99;101795.53;6266284;28;20082;-72
2021/04/03 00:38:38;;;;;;;;;;;;;;;5.71;47.23;101782.34;6266064;28;20454;-72
2021/04/03 00:41:41;;;;;;;;;;;;;;;5.73;47.18;101783.03;6266147;28;20227;-72
2021/04/03 00:44:44;;;;;;;;;;;;;;;5.64;47.50;101778.63;6267431;28;19917;-71
2021/04/03 00:47:47;;;;;;;;;;;;;;;5.70;47.71;101788.78;6266896;28;19963;-72
2021/04/03 00:50:52;;;;;;;;;;;;;;;5.68;47.91;101793.50;6249415;28;19917;-72
2021/04/03 00:54:00;;;;;;;;;;;;;;;5.66;47.75;101792.84;6249319;28;19924;-73
2021/04/03 00:57:06;;;;;;;;;;;;;;;5.55;47.60;101782.28;6249653;28;19924;-73
2021/04/03 01:00:11;;;;;;;;;;;;;;;5.52;47.79;101785.34;6248883;28;19921;-73
2021/04/03 01:03:30;;;;;;;;;;;;;;;5.57;47.62;101793.81;6266084;28;20196;-73
2021/04/03 01:06:36;;;;;;;;;;;;;;;5.56;47.65;101787.56;6266396;28;20000;-72
2021/04/03 01:09:41;;;;;;;;;;;;;;;5.46;48.34;101796.78;6265495;28;20112;-73
2021/04/03 01:12:52;;;;;;;;;;;;;;;5.58;47.20;101795.50;6280917;28;19917;-72
2021/04/03 01:16:01;;;;;;;;;;;;;;;5.54;47.46;101794.13;6265387;28;20030;-72
2021/04/03 01:19:10;;;;;;;;;;;;;;;5.53;47.79;101804.09;6248009;28;19917;-72
2021/04/03 01:22:22;;;;;;;;;;;;;;;5.48;47.42;101802.88;6265111;28;20262;-73
2021/04/03 01:25:36;;;;;;;;;;;;;;;5.39;47.82;101801.16;6280597;28;20035;-73
2021/04/03 01:28:53;;;;;;;;;;;;;;;5.28;47.98;101804.13;6248485;28;19917;-72
2021/04/03 01:32:02;;;;;;;3.83;0.87;;;;;;;5.28;48.23;101810.38;6247908;28;20213;-72
2021/04/03 01:35:09;;;;;;;0.70;0.70;;;;;;;5.22;48.29;101807.44;6264489;28;20187;-73
2021/04/03 01:38:19;;;;;;;2.43;0.90;;;;;;;5.28;48.95;101809.53;6265633;28;20222;-73
2021/04/03 01:41:26;;;;;;;0.70;0.70;;;;;;;5.22;47.54;101811.00;6247195;28;20204;-73
2021/04/03 01:44:32;;;;;;;0.70;0.70;;;;;;;5.07;48.05;101801.78;6247274;28;20207;-73
2021/04/03 01:47:41;;;;;;;0.83;0.70;;;;;;;5.10;48.61;101816.84;6264181;28;20417;-73
2021/04/03 01:50:46;;;;;;;0.67;0.63;;;;;;;5.24;48.73;101838.75;6247522;28;20208;-73
2021/04/03 01:53:55;;;;;;;0.60;0.60;;;;;;;5.17;48.30;101823.31;6265009;28;20191;-72
2021/04/03 01:57:00;;;;;;;0.60;0.60;;;;;;;5.06;48.62;101822.56;6263914;28;20404;-72
2021/04/03 02:00:24;;;;;;;0.60;0.60;;;;;;;5.15;49.26;101830.75;6264326;28;20220;-71
2021/04/03 02:03:38;;;;;;;0.60;0.60;;;;;;;5.17;48.67;101817.91;6246946;28;20505;-71
2021/04/03 02:06:46;;;;;;;0.93;0.60;;;;;;;4.85;49.66;101813.94;6264073;28;20243;-73
2021/04/03 02:10:02;;;;;;;1.60;0.90;;;;;;;5.04;49.72;101839.97;6246402;28;20203;-72
2021/04/03 02:13:16;;;;;;;0.70;0.70;;;;;;;4.91;49.89;101824.13;6246665;28;20286;-73
2021/04/03 02:16:26;;;;;;;0.60;0.60;;;;;;;5.09;50.04;101843.03;6246162;28;20207;-73
2021/04/03 02:19:32;;;;;;;0.80;0.80;;;;;;;4.79;50.25;101841.63;6262595;28;20552;-72
2021/04/03 02:22:36;;;;;;;1.73;0.73;;;;;;;4.78;50.75;101839.91;6264734;28;20186;-72
2021/04/03 02:25:44;;;;;;;0.70;0.70;;;;;;;4.72;50.61;101856.75;6262877;28;20201;-72
2021/04/03 02:28:53;;;;;;;0.87;0.87;;;;;;;4.67;51.18;101847.41;6263623;28;20263;-72
2021/04/03 02:31:56;;;;;;;0.70;0.70;;;;;;;4.59;51.31;101845.47;6263117;28;20478;-72
2021/04/03 02:35:01;;;;;;;0.67;0.67;;;;;;;4.51;52.43;101831.88;6246460;28;20302;-72
2021/04/03 02:38:17;;;;;;;1.00;0.70;;;;;;;4.67;51.39;101832.06;6263911;28;20218;-72
2021/04/03 02:41:37;;;;;;;1.20;0.80;;;;;;;4.76;52.15;101852.75;6245279;28;20543;-73
2021/04/03 02:44:47;;;;;;;0.73;0.73;;;;;;;4.58;51.48;101851.03;6246134;28;20470;-72
2021/04/03 02:47:57;;;;;;;0.70;0.70;;;;;;;4.44;52.39;101847.03;6248936;28;20284;-72
2021/04/03 02:51:04;;;;;;;0.73;0.73;;;;;;;4.12;52.01;101754.81;6251218;28;20270;-73
2021/04/03 02:54:15;;;;;;;0.77;0.77;;;;;;;4.72;51.75;101848.66;6264574;28;20224;-73
2021/04/03 02:57:20;;;;;;;0.80;0.80;;;;;;;4.69;52.15;101856.22;6262427;28;20229;-73
2021/04/03 03:00:26;;;;;;;2.00;0.80;;;;;;;4.64;52.37;101858.53;6246193;28;20234;-72
2021/04/03 03:03:34;;;;;;;1.13;0.90;;;;;;;4.61;52.12;101854.28;6244782;28;20247;-73
2021/04/03 03:06:40;;;;;;;1.03;0.77;;;;;;;4.67;52.77;101863.63;6262369;28;20239;-72
2021/04/03 03:09:49;;;;;;;1.57;0.70;;;;;;;4.70;51.77;101861.44;6263182;28;20211;-72
2021/04/03 03:12:56;;;;;;;0.70;0.70;;;;;;;4.61;52.50;101870.50;6245297;28;20202;-73
2021/04/03 03:16:06;;;;;;;0.63;0.63;;;;;;;4.50;53.10;101881.53;6262461;28;20189;-73
2021/04/03 03:19:14;;;;;;;1.07;0.80;;;;;;;4.49;52.75;101878.97;6263325;28;20217;-73
2021/04/03 03:22:21;;;;;;;0.70;0.70;;;;;;;4.47;53.10;101887.22;6262081;28;20292;-73
2021/04/03 03:25:25;;;;;;;0.93;0.90;;;;;;;4.45;52.83;101891.94;6263309;28;20188;-73
2021/04/03 03:28:32;;;;;;;1.10;0.90;;;;;;;4.46;53.20;101890.09;6245261;28;20206;-73
2021/04/03 03:31:36;;;;;;;0.97;0.90;;;;;;;4.19;53.33;101869.34;6244527;28;20283;-72
2021/04/03 03:34:40;;;;;;;1.70;0.70;;;;;;;4.53;53.17;101894.72;6245435;28;20338;-73
2021/04/03 03:37:48;;;;;;;0.70;0.70;;;;;;;4.34;53.73;101911.06;6261173;28;20221;-73
2021/04/03 03:40:55;;;;;;;0.70;0.70;;;;;;;4.35;53.71;101901.97;6243882;28;20204;-73
2021/04/03 03:44:04;;;;;;;0.87;0.70;;;;;;;4.47;53.23;101906.13;6244202;28;20390;-73
2021/04/03 03:47:09;;;;;;;0.90;0.90;;;;;;;4.39;53.37;101914.19;6262876;28;20190;-72
2021/04/03 03:50:16;;;;;;;1.27;0.93;;;;;;;4.55;53.35;101900.84;6245016;28;20209;-72
2021/04/03 03:53:22;;;;;;;0.70;0.70;;;;;;;4.46;54.17;101901.75;6277406;28;20249;-73
2021/04/03 03:56:25;;;;;;;0.80;0.80;;;;;;;4.41;53.67;101901.38;6261356;28;20502;-73
2021/04/03 03:59:29;;;;;;;1.57;0.77;;;;;;;4.41;54.01;101918.44;6261220;28;20467;-73
2021/04/03 04:02:32;;;;;;;1.40;1.10;;;;;;;4.23;53.83;101930.19;6244066;28;20504;-73
2021/04/03 04:05:36;;;;;;;0.70;0.70;;;;;;;4.19;54.23;101939.56;6236253;28;20231;-73
2021/04/03 04:08:44;;;;;;;1.00;0.90;;;;;;;4.13;54.69;101929.38;6237788;28;20196;-72
2021/04/03 04:11:51;;;;;;;0.87;0.87;;;;;;;4.12;54.09;101949.28;6236891;28;20203;-72
2021/04/03 04:14:59;;;;;;;1.70;0.97;;;;;;;4.22;54.20;101936.56;6238095;28;20187;-72
2021/04/03 04:18:05;;;;;;;2.87;0.90;;;;;;;4.25;54.08;101938.97;6236836;28;20211;-72
2021/04/03 04:21:08;;;;;;;0.93;0.93;;;;;;;4.19;53.51;101944.97;6236328;28;20211;-72
2021/04/03 04:24:15;;;;;;;1.10;0.90;;;;;;;4.25;54.03;101944.38;6236521;28;20367;-73
2021/04/03 04:27:19;;;;;;;0.90;0.90;;;;;;;4.19;53.40;101947.66;6235896;28;20230;-72
2021/04/03 04:30:24;;;;;;;3.53;1.10;;;;;;;4.19;53.63;101951.22;6235887;28;20327;-71
2021/04/03 04:33:35;;;;;;;0.80;0.80;;;;;;;4.03;53.99;101944.78;6235471;28;20524;-72
2021/04/03 04:36:40;;;;;;;3.20;0.90;;;;;;;4.11;53.73;101955.69;6252453;28;20265;-72
2021/04/03 04:39:49;;;;;;;0.80;0.80;;;;;;;4.25;54.01;101950.66;6236220;28;20198;-72
2021/04/03 04:42:58;;;;;;;2.53;1.17;;;;;;;4.20;54.50;101952.09;6237476;28;20190;-72
2021/04/03 04:46:06;;;;;;;1.13;1.00;;;;;;;4.26;54.20;101956.91;6236408;28;20495;-72
2021/04/03 04:49:19;;;;;;;0.87;0.87;;;;;;;3.95;54.02;101974.34;6235608;28;20285;-72
2021/04/03 04:52:24;;;;;;;0.87;0.87;;;;;;;4.07;54.31;101973.19;6234940;28;20502;-72
2021/04/03 04:55:29;;;;;;;0.93;0.87;;;;;;;4.05;53.83;101969.78;6235547;28;20500;-72
2021/04/03 04:58:33;;;;;;;1.80;1.00;;;;;;;3.95;54.55;101986.03;6235695;28;20222;-72
2021/04/03 05:01:38;;;;;;;1.23;0.80;;;;;;;3.97;54.73;101989.41;6236099;28;20376;-72
2021/04/03 05:04:45;;;;;;;1.80;0.83;;;;;;;4.21;54.54;101991.63;6240012;28;20559;-72
2021/04/03 05:07:48;;;;;;;1.70;0.90;;;;;;;4.16;53.62;101970.44;6247459;28;20273;-72
2021/04/03 05:10:52;;;;;;;2.43;0.93;;;;;;;4.15;54.02;101984.09;6266102;28;20249;-72
2021/04/03 05:13:55;;;;;;;0.87;0.87;;;;;;;4.06;54.45;101999.31;6266318;28;20209;-72
2021/04/03 05:16:58;;;;;;;2.13;0.90;;;;;;;3.89;54.41;101996.53;6266266;28;20185;-72
2021/04/03 05:20:03;;;;;;;3.33;1.10;;;;;;;3.61;55.08;101955.97;6265964;28;20206;-72
2021/04/03 05:23:07;;;;;;;1.07;1.00;;;;;;;4.10;54.38;101994.50;6265752;28;20233;-72
2021/04/03 05:26:12;;;;;;;1.07;0.80;;;;;;;3.88;53.65;101963.28;6265147;28;20199;-72
2021/04/03 05:29:16;;;;;;;1.63;0.80;;;;;;;4.10;53.50;102002.59;6266009;28;20230;-72
2021/04/03 05:32:19;;;;;;;1.47;1.10;;;;;;;4.09;54.33;102000.88;6265907;28;20187;-72
2021/04/03 05:35:22;;;;;;;1.87;0.90;;;;;;;4.16;54.52;102010.13;6265604;28;20188;-72
2021/04/03 05:38:28;;;;;;;1.67;0.90;;;;;;;4.16;53.58;101999.31;6264575;28;20277;-72
2021/04/03 05:41:32;;;;;;;2.10;0.90;;;;;;;4.38;54.08;101998.94;6265471;28;20220;-72
2021/04/03 05:44:37;;;;;;;0.90;0.90;;;;;;;4.34;53.77;101997.50;6264169;28;20506;-74
2021/04/03 05:47:41;;;;;;;2.53;0.80;;;;;;;4.16;53.59;102015.53;6265506;28;20265;-72
2021/04/03 05:50:45;;;;;;;1.43;0.90;;;;;;;4.03;53.59;102010.41;6265467;28;20196;-72
2021/04/03 05:53:48;;;;;;;0.80;0.80;;;;;;;4.20;53.70;102011.50;6263726;28;20203;-73
2021/04/03 05:56:54;;;;;;;1.27;0.80;;;;;;;4.25;52.70;102009.22;6246552;28;20209;-73
2021/04/03 05:59:57;;;;;;;1.57;1.00;;;;;;;4.43;52.73;102018.25;6264911;28;20220;-72
2021/04/03 06:03:00;;;;;;;3.80;0.93;;;;;;;4.11;53.55;102023.22;6263793;28;20233;-72
2021/04/03 06:06:05;;;;;;;1.80;0.97;;;;;;;4.07;53.72;102022.66;6264110;28;20240;-72
2021/04/03 06:09:10;;;;;;;0.90;0.90;;;;;;;4.39;53.15;102038.47;6263726;28;20478;-72
2021/04/03 06:12:14;;;;;;;1.87;0.90;;;;;;;4.28;53.25;102025.16;6264821;28;20253;-73
2021/04/03 06:15:35;;;;;;;0.80;0.80;;;;;;;4.26;53.86;102021.75;6264588;28;20193;-72
2021/04/03 06:18:38;;;;;;;0.90;0.90;;;;;;;4.30;53.49;102033.94;6263019;28;20559;-71
2021/04/03 06:21:43;;;;;;;2.00;1.10;;;;;;;4.29;53.69;102030.38;6263474;28;20538;-72
2021/04/03 06:24:46;;;;;;;3.17;0.93;;;;;;;4.18;53.37;102037.84;6263687;28;20402;-73
2021/04/03 06:28:05;;;;;;;0.90;0.90;;;;;;;4.22;53.50;102031.13;6263539;28;20190;-73
2021/04/03 06:31:14;;;;;;;0.90;0.90;;;;;;;4.26;53.24;102054.16;6262033;28;20206;-73
2021/04/03 06:34:35;;;;;;;2.33;0.97;;;;;;;4.44;53.03;102049.69;6264083;28;20189;-72
2021/04/03 06:37:47;;;;;;;2.00;0.90;;;;;;;4.56;53.65;102045.81;6263978;28;20217;-72
2021/04/03 06:40:51;;;;;;;2.03;1.10;;;;;;;4.53;52.87;102046.09;6264027;28;20261;-73
2021/04/03 06:44:03;;;;;;;1.00;0.90;;;;;;;4.42;53.42;102055.22;6262869;28;20489;-72
2021/04/03 06:47:07;;;;;;;1.00;0.90;;;;;;;4.53;52.50;102056.91;6264247;28;20186;-73
2021/04/03 06:50:13;;;;;;;1.00;0.90;;;;;;;4.55;52.52;102054.03;6263110;28;20199;-73
2021/04/03 06:53:18;;;;;;;1.40;0.80;;;;;;;4.60;53.06;102046.34;6263923;28;20234;-73
2021/04/03 06:56:23;;;;;;;0.80;0.80;;;;;;;4.58;52.38;102057.31;6263986;28;20195;-73
2021/04/03 06:59:29;;;;;;;1.53;0.90;;;;;;;4.73;51.98;102055.81;6263734;28;20221;-73
2021/04/03 07:02:39;;;;;;;1.03;1.00;;;;;;;4.47;52.74;102025.06;6262472;28;20430;-73
2021/04/03 07:05:44;;;;;;;2.53;1.07;;;;;;;4.62;52.95;102052.47;6262912;28;20292;-73
2021/04/03 07:08:49;;;;;;;0.83;0.83;;;;;;;4.73;52.14;102055.81;6263889;28;20195;-73
2021/04/03 07:11:54;;;;;;;1.10;1.00;;;;;;;4.67;52.80;102069.94;6263257;28;20186;-72
2021/04/03 07:14:58;;;;;;;0.80;0.80;;;;;;;4.61;52.58;102048.91;6263131;28;20232;-73
2021/04/03 07:18:01;;;;;;;3.23;1.10;;;;;;;4.69;53.46;102067.94;6262066;28;20618;-72
2021/04/03 07:21:07;;;;;;;0.87;0.87;;;;;;;4.49;52.30;102060.91;6263539;28;20224;-72
2021/04/03 07:24:12;;;;;;;9.90;1.53;;;;;;;4.27;53.21;102066.66;6263167;28;20254;-72
2021/04/03 07:27:16;;;;;;;1.60;0.80;;;;;;;4.57;52.93;102077.22;6262326;28;20187;-72
2021/04/03 07:30:43;;;;;;;1.00;1.00;;;;;;;4.27;53.15;102058.56;6261624;28;20222;-72
2021/04/03 07:33:50;;;;;;;2.20;1.10;;;;;;;4.43;53.04;102072.31;6262776;28;20253;-72
2021/04/03 07:36:53;;;;;;;1.10;1.00;;;;;;;4.32;53.43;102080.56;6262713;28;20192;-72
2021/04/03 07:39:56;;;;;;;1.80;1.00;;;;;;;4.61;52.78;102077.78;6262156;28;20220;-73
2021/04/03 07:43:00;;;;;;;1.00;1.00;;;;;;;4.63;53.03;102073.94;6262599;28;20225;-72
2021/04/03 07:46:06;;;;;;;3.43;1.03;;;;;;;4.67;51.49;102067.25;6262915;28;20185;-74
2021/04/03 07:49:11;;;;;;;1.30;0.97;;;;;;;4.74;52.00;102076.44;6261005;28;20502;-73
2021/04/03 07:52:16;;;;;;;2.97;1.10;;;;;;;4.61;52.11;102075.94;6262810;28;20254;-72
2021/04/03 07:55:34;;;;;;;1.10;1.00;;;;;;;4.81;51.61;102072.13;6262566;28;20187;-72
2021/04/03 07:58:47;;;;;;;1.03;0.90;;;;;;;4.87;51.51;102066.16;6262573;28;20214;-72
2021/04/03 08:01:57;;;;;;;0.70;0.70;;;;;;;4.82;52.14;102090.06;6262272;28;20187;-72
2021/04/03 08:05:10;;;;;;;1.23;1.00;;;;;;;4.75;51.44;102083.53;6261089;28;20229;-72
2021/04/03 08:08:17;;;;;;;1.90;0.90;;;;;;;4.85;51.84;102095.16;6261258;28;20264;-72
2021/04/03 08:11:21;;;;;;;1.00;1.00;;;;;;;4.91;51.72;102082.91;6261070;28;20217;-72
2021/04/03 08:14:27;;;;;;;0.83;0.83;;;;;;;4.90;51.59;102089.34;6261927;28;20258;-72
2021/04/03 08:17:31;;;;;;;5.93;1.30;;;;;;;4.83;51.79;102091.75;6261811;28;20233;-72
2021/04/03 08:20:35;;;;;;;1.17;1.07;;;;;;;4.63;51.39;102100.97;6261861;28;20212;-72
2021/04/03 08:23:40;;;;;;;0.80;0.80;;;;;;;4.59;51.76;102091.47;6261180;28;20273;-73
2021/04/03 08:26:44;;;;;;;2.13;1.00;;;;;;;4.65;51.73;102104.38;6261138;28;20186;-73
2021/04/03 08:29:58;;;;;;;1.20;0.90;;;;;;;4.71;51.58;102103.78;6260948;28;20230;-72
2021/04/03 08:33:10;;;;;;;0.77;0.77;;;;;;;4.88;51.14;102111.09;6244110;28;20203;-72
2021/04/03 08:36:15;;;;;;;0.70;0.70;;;;;;;4.92;50.82;102090.88;6261085;28;20261;-72
2021/04/03 08:39:21;;;;;;;0.97;0.90;;;;;;;4.90;51.47;102081.22;6259826;28;20403;-73
2021/04/03 08:42:24;;;;;;;4.70;1.10;;;;;;;4.71;51.12;102070.47;6265659;28;20218;-73
2021/04/03 08:45:33;;;;;;;2.40;1.00;;;;;;;4.74;50.95;102098.09;6265243;28;20187;-73
2021/04/03 08:48:39;;;;;;;8.03;1.43;;;;;;;4.84;50.69;102109.69;6265332;28;20475;-71
2021/04/03 08:51:43;;;;;;;1.27;0.87;;;;;;;4.87;50.41;102109.41;6266342;28;20233;-72
2021/04/03 08:54:46;;;;;;;8.03;0.90;;;;;;;5.00;49.89;102101.81;6265967;28;20206;-72
2021/04/03 08:57:51;;;;;;;0.87;0.87;;;;;;;5.14;49.52;102113.09;6265213;28;20255;-72
2021/04/03 09:00:54;;;;;;;3.50;1.00;;;;;;;5.00;49.77;102109.91;6265204;28;20214;-73
2021/04/03 09:04:03;;;;;;;0.80;0.80;;;;;;;4.92;49.63;102074.66;6269163;28;20234;-73
2021/04/03 09:07:07;;;;;;;0.80;0.80;;;;;;;5.14;49.01;102104.97;6272710;28;20302;-72
2021/04/03 09:10:14;;;;;;;2.03;0.90;;;;;;;5.17;49.33;102099.28;6263887;28;20525;-72
2021/04/03 09:13:17;;;;;;;1.47;1.00;;;;;;;5.34;49.21;102101.19;6265781;28;20188;-71
2021/04/03 09:16:21;;;;;;;0.83;0.70;;;;;;;5.24;48.34;102109.34;6265529;28;20194;-73
2021/04/03 09:19:26;;;;;;;1.87;0.73;;;;;;;5.35;47.75;102097.44;6265281;28;20243;-72
2021/04/03 09:22:36;;;;;;;0.73;0.73;;;;;;;5.35;48.07;102098.31;6265343;28;20191;-72
2021/04/03 09:25:40;;;;;;;2.10;0.80;;;;;;;5.29;48.07;102079.13;6264500;28;20379;-73
2021/04/03 09:28:43;;;;;;;2.40;0.97;;;;;;;5.54;47.39;102098.19;6265732;28;20191;-73
2021/04/03 09:31:46;;;;;;;0.80;0.80;;;;;;;5.18;46.26;102058.56;6265471;28;20187;-73
2021/04/03 09:35:03;;;;;;;0.90;0.90;;;;;;;5.26;47.39;102103.78;6264307;28;20187;-72
2021/04/03 09:38:07;;;;;;;0.80;0.80;;;;;;;5.16;46.24;102043.47;6265322;28;20186;-72
2021/04/03 09:41:22;;;;;;;0.80;0.80;;;;;;;5.53;45.32;102082.06;6264436;28;20211;-72
2021/04/03 09:44:26;;;;;;;0.80;0.80;;;;;;;5.48;46.30;102087.09;6265045;28;20254;-73
2021/04/03 09:47:29;;;;;;;1.80;0.70;;;;;;;5.59;46.60;102086.88;6263946;28;20226;-72
2021/04/03 09:50:33;;;;;;;1.50;0.80;;;;;;;5.82;45.19;102085.41;6263817;28;20226;-72
2021/04/03 09:53:38;;;;;;;3.37;0.90;;;;;;;5.82;44.91;102058.31;6264203;28;20479;-72
2021/04/03 09:56:41;;;;;;;3.83;0.97;;;;;;;5.94;44.85;102089.59;6263668;28;20375;-72
2021/04/03 09:59:44;;;;;;;3.10;0.90;;;;;;;5.88;45.42;102095.63;6264770;28;20218;-73
2021/04/03 10:02:47;;;;;;;0.70;0.70;;;;;;;6.01;44.15;102104.22;6263513;28;20437;-72
2021/04/03 10:05:51;;;;;;;0.93;0.93;;;;;;;5.79;43.85;102096.56;6264494;28;20230;-72
2021/04/03 10:08:55;;;;;;;0.77;0.77;;;;;;;5.96;43.84;102086.72;6264394;28;20199;-73
2021/04/03 10:11:59;;;;;;;0.93;0.90;;;;;;;5.87;43.50;102085.81;6263284;28;20332;-73
2021/04/03 10:15:02;;;;;;;1.70;0.90;;;;;;;5.86;43.84;102086.81;6264198;28;20273;-73
2021/04/03 10:18:07;;;;;;;0.90;0.90;;;;;;;5.96;42.57;102082.16;6263871;28;20189;-72
2021/04/03 10:21:13;;;;;;;1.13;0.90;;;;;;;6.07;42.94;102084.63;6264149;28;20294;-72
2021/04/03 10:24:16;;;;;;;1.97;1.00;;;;;;;6.09;43.01;102077.19;6263745;28;20189;-72
2021/04/03 10:27:19;;;;;;;2.03;0.70;;;;;;;6.29;42.63;102084.09;6263594;28;20473;-72
2021/04/03 10:30:23;;;;;;;5.30;1.00;;;;;;;6.22;42.22;102072.19;6263708;28;20196;-72
2021/04/03 10:33:26;;;;;;;1.60;0.70;;;;;;;6.23;41.91;102068.50;6263653;28;20185;-72
2021/04/03 10:36:30;;;;;;;1.70;0.80;;;;;;;6.45;42.09;102077.94;6263849;28;20219;-71
2021/04/03 10:39:33;;;;;;;2.13;0.80;;;;;;;6.40;42.05;102069.44;6262504;28;20279;-72
2021/04/03 10:42:36;;;;;;;1.93;0.73;;;;;;;6.66;42.15;102072.13;6262317;28;20487;-72
2021/04/03 10:45:40;;;;;;;0.80;0.80;;;;;;;6.59;41.42;102062.94;6277106;28;20204;-72
2021/04/03 10:48:43;;;;;;;0.87;0.87;;;;;;;6.74;42.22;102062.19;6263513;28;20194;-72
2021/04/03 10:51:47;;;;;;;;;;;;;;;6.74;41.92;102078.44;6262632;28;20522;-72
2021/04/03 10:54:50;;;;;;;9.30;1.63;;;;;;;5.99;41.39;101957.22;6262417;28;20135;-72
2021/04/03 10:57:53;;;;;;;0.80;0.80;;;;;;;6.47;41.25;102069.66;6263585;28;20259;-72
2021/04/03 11:00:57;;;;;;;3.50;0.80;;;;;;;6.56;41.03;102076.81;6263157;28;20212;-72
2021/04/03 11:04:00;;;;;;;0.80;0.80;;;;;;;6.51;41.43;102071.03;6262510;28;20203;-72
2021/04/03 11:07:06;;;;;;;1.30;1.10;;;;;;;6.59;41.27;102063.81;6262206;28;20246;-72
2021/04/03 11:10:10;;;;;;;1.70;0.90;;;;;;;6.80;41.31;102056.13;6262449;28;20196;-72
2021/04/03 11:13:17;;;;;;;0.80;0.80;;;;;;;7.01;41.52;102063.78;6261763;28;20408;-73
2021/04/03 11:16:20;;;;;;;;;;;;;;;6.88;40.35;102074.28;6262623;28;20223;-73
2021/04/03 11:19:22;;;;;;;;;;;;;;;6.92;40.73;102062.94;6263145;28;19967;-73
2021/04/03 11:22:26;;;;;;;2.33;1.00;;;;;;;6.94;39.82;102050.03;6263107;28;19917;-73
2021/04/03 11:25:30;;;;;;;0.90;0.90;;;;;;;7.03;40.08;102061.78;6261815;28;20535;-73
2021/04/03 11:28:34;;;;;;;1.10;0.97;;;;;;;7.28;39.90;102054.56;6262389;28;20191;-73
2021/04/03 11:31:37;;;;;;;;;;;;;;;7.25;39.33;102050.31;6262099;28;20050;-73
2021/04/03 11:34:40;;;;;;;1.90;0.90;;;;;;;7.15;40.58;102038.75;6262630;28;20003;-72
2021/04/03 11:37:46;;;;;;;2.90;1.27;;;;;;;7.00;40.59;102067.53;6262494;28;20185;-72
2021/04/03 11:40:49;;;;;;;8.27;5.00;;;;;;;7.16;40.66;102042.31;6244968;28;20302;-72
2021/04/03 11:43:55;;;;;;;2.60;1.85;;;;;;;7.35;40.88;102042.00;6262348;28;20192;-72
2021/04/03 11:46:58;;;;;;;1.10;1.10;;;;;;;7.21;40.75;102032.66;6262467;28;20248;-72
2021/04/03 11:50:02;;;;;;;3.58;1.00;;;;;;;7.38;40.78;102039.81;6262061;28;20188;-72
2021/04/03 11:53:06;;;;;;;;;;;;;;;7.25;38.76;102044.03;6261714;28;20322;-72
2021/04/03 11:56:10;;;;;;;;;;;;;;;7.15;39.23;102049.59;6263051;28;19992;-72
2021/04/03 11:59:13;;;;;;;;;;;;;;;7.33;39.21;102046.75;6262745;28;19924;-72
2021/04/03 12:02:16;;;;;;;;;;;;;;;7.39;39.43;102046.09;6262471;28;19917;-73
2021/04/03 12:05:19;;;;;;;;;;;;;;;7.33;38.46;102038.63;6262265;28;19917;-71
2021/04/03 12:08:24;;;;;;;;;;;;;;;7.22;38.46;102039.78;6262673;28;19955;-72
2021/04/03 12:11:27;;;;;;;;;;;;;;;7.44;38.93;102036.44;6262749;28;19917;-73
2021/04/03 12:14:30;;;;;;;;;;;;;;;7.28;38.74;102044.56;6263687;28;19924;-72
2021/04/03 12:17:33;;;;;;;;;;;;;;;7.13;39.21;102051.66;6267597;28;19924;-73
2021/04/03 12:20:36;;;;;;;3.63;1.20;;;;;;;7.36;38.76;102041.00;6267378;28;19959;-73
2021/04/03 12:23:40;;;;;;;1.00;1.00;;;;;;;7.46;38.84;102037.13;6265912;28;20431;-73
2021/04/03 12:26:44;;;;;;;1.35;1.25;;;;;;;7.29;38.34;102035.38;6265711;28;20468;-73
2021/04/03 12:29:46;;;;;;;;;;;;;;;7.32;38.49;102040.47;6266318;28;20195;-73
2021/04/03 12:32:49;;;;;;;6.53;0.82;;;;;;;7.48;38.41;102035.06;6265861;28;20224;-73
2021/04/03 12:35:53;;;;;;;;;;;;;;;7.57;38.06;102028.63;6266828;28;20248;-73
2021/04/03 12:38:57;;;;;;;;;;;;;;;7.69;37.90;102033.72;6267319;28;19928;-73
2021/04/03 12:42:00;;;;;;;0.80;0.80;;;;;;;7.71;38.47;102023.53;6266360;28;20091;-72
2021/04/03 12:45:03;;;;;;;;;;;;;;;7.44;38.17;102033.72;6266488;28;20185;-72
2021/04/03 12:48:09;;;;;;;;;;;;;;;7.56;38.41;102037.81;6266566;28;19921;-73
2021/04/03 12:51:12;;;;;;;;;;;;;;;7.63;38.40;102020.84;6265807;28;20081;-72
2021/04/03 12:54:15;;;;;;;;;;;;;;;7.65;38.51;102025.09;6266782;28;19963;-72
2021/04/03 12:57:19;;;;;;;;;;;;;;;7.78;38.26;102016.44;6265613;28;20258;-73
2021/04/03 13:00:22;;;;;;;;;;;;;;;7.80;38.30;102017.97;6248863;28;19952;-72
2021/04/03 13:03:28;;;;;;;0.90;0.90;;;;;;;7.79;38.26;102009.97;6266347;28;19921;-72
2021/04/03 13:06:31;;;;;;;;;;;;;;;7.71;38.58;102013.53;6265033;28;20750;-72
2021/04/03 13:09:34;;;;;;;;;;;;;;;7.91;38.70;102008.63;6266586;28;19916;-73
2021/04/03 13:12:38;;;;;;;;;;;;;;;7.95;38.75;102009.97;6265265;28;20204;-73
2021/04/03 13:15:41;;;;;;;;;;;;;;;7.95;38.22;102004.53;6266299;28;19921;-73
2021/04/03 13:18:43;;;;;;;;;;;;;;;8.01;37.67;101998.41;6265869;28;20578;-73
2021/04/03 13:21:46;;;;;;;1.00;0.90;;;;;;;8.09;38.56;101991.06;6265983;28;19928;-72
2021/04/03 13:24:50;;;;;;;2.03;0.70;;;;;;;7.84;38.48;101994.84;6265192;28;20283;-72
2021/04/03 13:27:53;;;;;;;1.45;0.70;;;;;;;7.91;37.96;101976.00;6265439;28;20185;-72
2021/04/03 13:30:56;;;;;;;0.90;0.90;;;;;;;8.02;38.27;102000.09;6265549;28;20260;-72
2021/04/03 13:34:00;;;;;;;1.88;0.90;;;;;;;8.14;37.65;101987.81;6264923;28;20212;-73
2021/04/03 13:37:04;;;;;;;1.45;0.93;;;;;;;8.13;38.03;101981.56;6265425;28;20247;-72
2021/04/03 13:40:11;;;;;;;10.05;1.30;;;;;;;8.21;38.52;101988.84;6264096;28;20213;-73
2021/04/03 13:43:18;;;;;;;1.92;1.00;;;;;;;8.26;38.50;101972.00;6265373;28;20189;-73
2021/04/03 13:46:21;;;;;;;1.23;1.23;;;;;;;8.31;38.65;101967.78;6265139;28;20192;-72
2021/04/03 13:49:24;;;;;;;0.98;0.95;;;;;;;8.25;38.49;101979.31;6263796;28;20188;-73
2021/04/03 13:52:27;;;;;;;1.10;1.05;;;;;;;8.25;38.62;101968.44;6265194;28;20192;-73
2021/04/03 13:55:31;;;;;;;1.30;1.20;;;;;;;8.27;38.78;101977.28;6264198;28;20185;-73
2021/04/03 13:58:34;;;;;;;4.85;1.23;;;;;;;8.27;38.59;101952.81;6264814;28;19993;-73
2021/04/03 14:01:38;;;;;;;1.20;1.20;;;;;;;8.35;38.71;101952.78;6263982;28;20213;-73
2021/04/03 14:04:41;;;;;;;1.58;1.10;;;;;;;8.07;39.68;101952.34;6264165;28;20295;-73
2021/04/03 14:07:45;;;;;;;2.85;1.13;;;;;;;8.30;39.33;101955.19;6263519;28;20207;-73
2021/04/03 14:10:49;;;;;;;1.30;1.17;;;;;;;8.27;38.94;101950.09;6264566;28;20227;-73
2021/04/03 14:13:55;;;;;;;;;;;;;;;7.97;38.77;101954.41;6264811;28;20185;-72
2021/04/03 14:16:58;;;;;;;;;;;;;;;8.00;39.05;101954.06;6265310;28;19917;-72
2021/04/03 14:20:15;;;;;;;;;;;;;;;8.01;38.95;101944.88;6264826;28;19917;-73
2021/04/03 14:23:21;;;;;;;;;;;;;;;8.38;38.99;101936.13;6264958;28;19994;-72
2021/04/03 14:26:25;;;;;;;;;;;;;;;8.39;39.30;101937.84;6263670;28;19917;-73
2021/04/03 14:29:28;;;;;;;;;;;;;;;8.34;38.74;101936.66;6246657;28;19956;-73
2021/04/03 14:32:31;;;;;;;;;;;;;;;8.30;38.45;101936.16;6263559;28;19917;-72
2021/04/03 14:35:34;;;;;;;;;;;;;;;8.15;38.88;101935.16;6262717;28;19916;-73
2021/04/03 14:38:37;;;;;;;;;;;;;;;8.13;39.46;101927.19;6263554;28;19985;-73
2021/04/03 14:41:41;;;;;;;;;;;;;;;8.33;39.67;101911.34;6263355;28;20186;-72
2021/04/03 14:44:44;;;;;;;;;;;;;;;8.35;39.55;101922.88;6263691;28;19981;-74
2021/04/03 14:47:47;;;;;;;;;;;;;;;8.33;40.17;101922.22;6264240;28;19916;-77
2021/04/03 14:50:50;;;;;;;;;;;;;;;8.47;40.02;101924.22;6263600;28;19921;-74
2021/04/03 14:53:53;;;;;;;;;;;;;;;8.51;41.02;101914.66;6263143;28;19939;-73